Flight Track Log - Related Links

Times and Time Zones

All times are in EDT time to prevent confusion due to time zone crossing. See the GJS3649 flight status page for this flight to view local times or setup timezone preferences in your user account.

Time Position Orientation Groundspeed Altitude Reporting Facility
EDT Latitude Longitude Course Direction KTS MPH feet Rate Location/Type
Thu 02:44:30 PM 41.9956 -72.7836 309° West 190 219 4,800  Level Boston Center
Thu 02:45:30 PM 41.9764 -72.8786 255° West 221 254 7,300 2,450 Climbing Boston Center
Thu 02:46:30 PM 41.9553 -72.9536 249° West 234 269 9,700 2,550 Climbing Boston Center
Thu 02:47:30 PM 41.9236 -73.0678 250° West 274 315 12,400 2,150 Climbing Boston Center
Thu 02:48:00 PM 41.8403 -73.4195 236° Southwest  Level FlightAware Approximate
Thu 02:48:30 PM 41.8958 -73.1653 249° West 300 345 14,000  Level Boston Center
Thu 02:49:30 PM 41.8617 -73.2903 250° West 318 366 16,400 2,250 Climbing Boston Center
Thu 02:50:30 PM 41.8272 -73.4042 248° West 334 384 18,500 2,182 Climbing Boston Center
Thu 02:51:42 PM 41.7908 -73.5233 248° West 339 390 21,200 1,955 Climbing Boston Center
Thu 02:52:42 PM 41.7333 -73.6475 238° Southwest 339 390 22,800 1,500 Climbing Boston Center
Thu 02:53:42 PM 41.6661 -73.6961 208° Southwest 316 364 24,200 1,073 Climbing Boston Center
Thu 02:55:41 PM 41.5189 -73.8633 220° Southwest 330 380 26,000 610 Climbing New York Center
Thu 02:56:39 PM 41.4436 -73.9539 222° Southwest 349 402 26,000  Level New York Center
Thu 02:57:40 PM 41.3681 -74.0469 223° Southwest 360 414 26,000  Level New York Center
Thu 02:58:40 PM 41.2950 -74.1344 222° Southwest 360 414 26,000  Level New York Center
Thu 02:59:40 PM 41.2194 -74.2217 221° Southwest 360 414 26,000  Level New York Center
Thu 03:00:41 PM 41.1442 -74.3061 220° Southwest 360 414 26,000  Level New York Center
Thu 03:01:39 PM 41.0706 -74.3958 223° Southwest 360 414 26,000  Level New York Center
Thu 03:02:40 PM 40.9950 -74.4825 221° Southwest 360 414 26,000  Level New York Center
Thu 03:03:40 PM 40.9214 -74.5689 222° Southwest 360 414 26,000 -50 Level New York Center
Thu 03:04:40 PM 40.8761 -74.6817 242° Southwest 355 409 25,900  Descending New York Center
Thu 03:05:39 PM 40.8406 -74.8031 249° West 355 409 26,000 50 Climbing New York Center
Thu 03:06:40 PM 40.8031 -74.9269 248° West 355 409 26,000 -50 Level New York Center
Thu 03:07:39 PM 40.7633 -75.0453 246° West 360 414 25,900  Descending New York Center
Thu 03:08:40 PM 40.7278 -75.1661 249° West 360 414 26,000 49 Climbing New York Center
Thu 03:09:41 PM 40.6919 -75.2869 249° West 360 414 26,000 -350 Level New York Center
Thu 03:10:40 PM 40.6497 -75.4072 245° Southwest 366 421 25,300 -850 Descending New York Center
Thu 03:11:41 PM 40.6014 -75.5217 241° Southwest 366 421 24,300 -1,322 Descending New York Center
Thu 03:12:38 PM 40.5411 -75.6211 231° Southwest 360 414 22,700 -1,729 Descending New York Center
Thu 03:13:39 PM 40.4831 -75.7153 231° Southwest 350 403 20,900 -1,350 Descending New York Center
Thu 03:14:38 PM 40.4250 -75.8067 230° Southwest 344 396 20,000 -446 Descending New York Center
Thu 03:15:40 PM 40.3667 -75.9006 231° Southwest 338 389 20,000  Level New York Center
Thu 03:16:39 PM 40.3022 -75.9964 229° Southwest 343 395 20,000  Level New York Center
Thu 03:17:39 PM 40.2436 -76.0925 231° Southwest 343 395 20,000  Level New York Center
Thu 03:18:40 PM 40.1831 -76.1886 231° Southwest 343 395 20,000 -347 Level New York Center
Thu 03:19:40 PM 40.1197 -76.2922 231° Southwest 343 395 19,300 -843 Descending New York Center
Thu 03:20:41 PM 40.0781 -76.3811 239° Southwest 326 375 18,300 -1,040 Descending New York Center
Thu 03:23:02 PM 39.9500 -76.6333 237° Southwest 339 390 15,800 -980 Descending Potomac TRACON
Thu 03:24:03 PM 39.9167 -76.7500 250° West 336 387 15,000 -470 Descending Potomac TRACON
Thu 03:24:57 PM 39.8667 -76.8333 232° Southwest 333 383 14,900 -632 Descending Potomac TRACON
Thu 03:25:57 PM 39.8167 -76.9333 237° Southwest 309 356 13,800 -942 Descending Potomac TRACON
Thu 03:26:58 PM 39.7833 -77.0167 243° Southwest 302 348 13,000 -793 Descending Potomac TRACON
Thu 03:27:58 PM 39.7333 -77.1167 237° Southwest 297 342 12,200 -850 Descending Potomac TRACON
Thu 03:28:58 PM 39.6833 -77.2167 237° Southwest 294 338 11,300 -893 Descending Potomac TRACON
Thu 03:29:59 PM 39.6500 -77.3000 243° Southwest 287 330 10,400 -893 Descending Potomac TRACON
Thu 03:30:59 PM 39.5833 -77.3500 210° Southwest 287 330 9,500 -950 Descending Potomac TRACON
Thu 03:31:59 PM 39.5000 -77.3500 180° South 293 337 8,500 -744 Descending Potomac TRACON
Thu 03:33:00 PM 39.4333 -77.3667 191° South 257 296 8,000 -694 Descending Potomac TRACON
Thu 03:34:00 PM 39.3667 -77.3667 180° South 237 273 7,100 -992 Descending Potomac TRACON
Thu 03:35:01 PM 39.3000 -77.3667 180° South 252 290 6,000 -1,041 Descending Potomac TRACON
Thu 03:36:01 PM 39.2167 -77.3667 180° South 246 283 5,000 -942 Descending Potomac TRACON
Thu 03:37:02 PM 39.1667 -77.3500 166° South 237 273 4,100 -496 Descending Potomac TRACON
Thu 03:38:02 PM 39.1000 -77.3500 180° South 236 272 4,000 -50 Descending Potomac TRACON
Thu 03:39:02 PM 39.0333 -77.3500 180° South 240 276 4,000  Level Potomac TRACON
Thu 03:40:03 PM 38.9667 -77.3500 180° South 238 274 4,000  Level Potomac TRACON
Thu 03:41:03 PM 38.9000 -77.3500 180° South 232 267 4,000  Level Potomac TRACON
Thu 03:42:03 PM 38.8333 -77.3667 191° South 217 250 4,000 -150 Level Potomac TRACON
Thu 03:43:03 PM 38.7833 -77.3667 180° South 206 237 3,700 -500 Descending Potomac TRACON
Thu 03:44:03 PM 38.7333 -77.3833 195° South 205 236 3,000 -350 Descending Potomac TRACON
Thu 03:45:03 PM 38.7500 -77.4333 293° West 195 224 3,000  Level Potomac TRACON

Login

Don't have an account? Register now (free) for customized features, flight alerts, and more!